Historyczne dane pomiarowe

Dodano dane terminowe – wersja testowa.

Dane z okresu 1951-2019

Wersja bazy: 1.34 [2019-03-16, lista zmian], aktualizacja planowana na 2019-04-15

Dane meteo z obszaru Polski uzyskane na podstawie danych udostępnionych przez Instytut Meteorologii i Gospodarki Wodnej – Państwowy Instytut Badawczy.

 

Wybierz Datę:    

       

TemperaturaWilgotnośćZachmurzenieWiatrCiśnienieWidzialnośćZjawiska
 Data    tng td wb rh cc ccl cl cm ch dir g1 g2 mslp ppp      
1994-07-23 00:00:00 12.2--- 10.2 11.188wxwxwx0wx--1021.5 980.4 0.0---wx
1994-07-23 01:00:00 11.0--- 9.5 10.291wxwxwx0wx--1021.6 980.3----wx
1994-07-23 02:00:00 10.5--- 9.8 10.195wxwxwx0wx--1021.8 980.4----wx
1994-07-23 03:00:00 9.6--- 8.5 9.093wxwxwx0wx--1021.9 980.4----wx
1994-07-23 04:00:00 8.6--- 8.0 8.396wxwxwx0wx--1022.1 980.5----wx
1994-07-23 05:00:00 11.2--- 10.1 10.693wxwxwx1wx--1021.9 980.6----wx
1994-07-23 06:00:00 15.1--- 11.6 13.180wxwxwx0wx--1021.3 980.6 0.0---wx
1994-07-23 07:00:00 20.2--- 12.2 15.460wxwxwx0wx--1020.4 980.4----wx
1994-07-23 08:00:00 25.2--- 8.5 15.635wxwxwx2wx--1019.4 980.1----wx
1994-07-23 09:00:00 26.4--- 8.4 16.032wxwxwx2wx--1019.1 980.0----wx
1994-07-23 10:00:00 27.2--- 7.6 16.029wxwxwx2wx--1018.8 979.8----wx
1994-07-23 11:00:00 27.6--- 7.2 16.028wxwxwx1wx--1018.5 979.6----wx
1994-07-23 12:00:00 28.8--- 7.1 16.425wxwxwx2wx--1018.0 979.2 0.0---wx
1994-07-23 13:00:00 28.8--- 6.0 16.024wxwxwxwx1wx--1017.6 978.9----wx
1994-07-23 14:00:00 29.0--- 5.8 16.023wxwxwxwx2wx--1017.2 978.5----wx
1994-07-23 15:00:00 28.4--- 6.4 16.025wxwxwxwx1wx--1017.0 978.2----wx
1994-07-23 16:00:00 28.4--- 6.9 16.226wxwxwx1wx--1017.0 978.2----wx
1994-07-23 17:00:00 27.4--- 6.9 15.827wxwxwx1wx--1016.9 978.0----wx
1994-07-23 18:00:00 26.0--- 8.2 15.832wxwxwx0wx--1017.2 978.1 0.0---wx
1994-07-23 19:00:00 21.4--- 11.3 15.452wxwxwx0wx--1018.0 978.3----wx
1994-07-23 20:00:00 17.8--- 10.5 13.662wxwxwx0wx--1019.0 978.8----wx
1994-07-23 21:00:00 16.0--- 11.5 13.475wxwxwx0wx--1019.5 979.0----wx
1994-07-23 22:00:00 14.4--- 11.3 12.681wxwxwx0wx--1019.9 979.2----wx
1994-07-23 23:00:00 13.4--- 10.2 11.681wxwxwx0wx--1020.2 979.3----wx

 

Źródłem pochodzenia danych jest Instytut Meteorologii i Gospodarki Wodnej – Państwowy Instytut Badawczy. Dane Instytutu Meteorologii i Gospodarki Wodnej – Państwowego Instytutu Badawczego zostały przetworzone.

Dane źródłowe można odnaleźć na stronie https://dane.imgw.pl